CheckWX is a tool to help pilots better visualize weather data.  It is not intended as a substitute for an official pre-flight weather briefing.

01:56:42 UTC

VTST TAF
Trang Airport
Thailand
TAF VTST 232300Z 2400/2424 06006KT 9999 FEW020 BECMG 2402/2404 06012KT BECMG 2412/2414 06006KT

Feb-24@
00:00 UTC

Feb-24 @ 00:00 UTC

Feb-24@
02:00 UTC

Feb-24 @ 02:00 UTC

TAF VTST 232300Z 2400/2424 06006KT 9999 FEW020
Wind
  • 060° at 6 KTS
Cloud Levels
  • Few at 2,000' AGL

Feb-24@
02:00 UTC

Feb-24 @ 02:00 UTC

Feb-24@
12:00 UTC

Feb-24 @ 12:00 UTC

BECMG 2402/2404 06012KT

Becoming

Becoming Conditions expected by Sun, Feb 24, 2019 @ 04:00 UTC

Wind
  • 060° at 12 KTS
Cloud Levels
  • Few at 2,000' AGL

Feb-24@
12:00 UTC

Feb-24 @ 12:00 UTC

Feb-25@
00:00 UTC

Feb-25 @ 00:00 UTC

BECMG 2412/2414 06006KT

Becoming

Becoming Conditions expected by Sun, Feb 24, 2019 @ 14:00 UTC

Wind
  • 060° at 6 KTS
Cloud Levels
  • Few at 2,000' AGL